createdAt,value
2023-04-26T00:01:30.815Z,101973.44
2023-04-26T00:03:57.622Z,101972.53
2023-04-26T00:06:24.272Z,101975.13
2023-04-26T00:08:50.873Z,101968.25
2023-04-26T00:11:17.514Z,101970.84
2023-04-26T00:13:43.926Z,101974.31
2023-04-26T00:16:10.408Z,101982.91
2023-04-26T00:18:37.292Z,101977.78
2023-04-26T00:21:03.827Z,101980.41
2023-04-26T00:23:30.318Z,101980.44
2023-04-26T00:25:57.260Z,101971.91
2023-04-26T00:28:23.686Z,101972.75
2023-04-26T00:30:51.216Z,101965.91
2023-04-26T00:33:17.664Z,101965.94
2023-04-26T00:35:44.395Z,101965.97
2023-04-26T00:38:10.862Z,101965.13
2023-04-26T00:40:37.468Z,101969.44
2023-04-26T00:43:04.084Z,101965.19
2023-04-26T00:45:31.391Z,101965.28
2023-04-26T00:48:01.273Z,101961.91
2023-04-26T00:50:29.032Z,101958.56
2023-04-26T00:52:57.291Z,101955.16
2023-04-26T00:55:23.994Z,101959.50
2023-04-26T00:57:50.494Z,101958.66
2023-04-26T01:00:17.088Z,101956.09
2023-04-26T01:02:44.077Z,101960.41
2023-04-26T01:05:11.120Z,101962.13
2023-04-26T01:07:38.917Z,101959.56
2023-04-26T01:10:06.110Z,101962.13
2023-04-26T01:12:33.032Z,101963.00
2023-04-26T01:15:00.080Z,101969.88
2023-04-26T01:17:26.631Z,101963.88
2023-04-26T01:19:53.197Z,101970.72
2023-04-26T01:22:19.606Z,101970.72
2023-04-26T01:24:50.366Z,101966.44
2023-04-26T01:27:17.518Z,101979.28
2023-04-26T01:29:44.018Z,101975.88
2023-04-26T01:32:11.997Z,101971.59
2023-04-26T01:34:38.548Z,101971.59
2023-04-26T01:37:05.031Z,101972.41
2023-04-26T01:39:31.568Z,101979.28
2023-04-26T01:42:00.675Z,101979.28
2023-04-26T01:44:27.081Z,101975.00
2023-04-26T01:46:53.414Z,101978.41
2023-04-26T01:49:19.857Z,101969.84
2023-04-26T01:51:46.201Z,101970.69
2023-04-26T01:54:12.751Z,101960.41
2023-04-26T01:56:39.266Z,101966.44
2023-04-26T01:59:05.637Z,101959.56
2023-04-26T02:01:32.383Z,101964.75
2023-04-26T02:03:58.832Z,101964.72
2023-04-26T02:06:25.416Z,101963.03
2023-04-26T02:08:52.978Z,101956.16
2023-04-26T02:11:19.641Z,101966.44
2023-04-26T02:13:46.020Z,101963.84
2023-04-26T02:16:12.443Z,101959.56
2023-04-26T02:18:38.821Z,101968.09
2023-04-26T02:21:09.184Z,101968.06
2023-04-26T02:23:35.638Z,101964.63
2023-04-26T02:26:02.187Z,101968.00
2023-04-26T02:28:28.775Z,101968.00
2023-04-26T02:30:56.920Z,101969.66
2023-04-26T02:33:23.400Z,101972.25
2023-04-26T02:35:49.856Z,101974.81
2023-04-26T02:38:16.406Z,101976.53
2023-04-26T02:40:42.774Z,101979.97
2023-04-26T02:43:10.188Z,101973.97
2023-04-26T02:45:44.358Z,101972.25
2023-04-26T02:48:10.874Z,101967.06
2023-04-26T02:50:37.432Z,101970.50
2023-04-26T02:53:04.333Z,101963.63
2023-04-26T02:55:31.054Z,101965.31
2023-04-26T02:57:57.504Z,101961.88
2023-04-26T03:00:24.848Z,101967.88
2023-04-26T03:02:52.081Z,101960.16
2023-04-26T03:05:19.932Z,101959.34
2023-04-26T03:07:46.525Z,101960.19
2023-04-26T03:10:12.886Z,101958.47
2023-04-26T03:12:39.340Z,101960.22
2023-04-26T03:15:06.235Z,101959.38
2023-04-26T03:17:32.707Z,101955.13
2023-04-26T03:20:00.610Z,101961.97
2023-04-26T03:22:28.817Z,101952.56
2023-04-26T03:24:55.161Z,101959.44
2023-04-26T03:27:21.569Z,101960.25
2023-04-26T03:29:48.015Z,101952.56
2023-04-26T03:32:14.538Z,101954.28
2023-04-26T03:34:41.245Z,101949.97
2023-04-26T03:37:07.690Z,101958.53
2023-04-26T03:39:34.141Z,101953.38
2023-04-26T03:42:01.188Z,101949.06
2023-04-26T03:44:29.240Z,101943.06
2023-04-26T03:46:57.026Z,101952.41
2023-04-26T03:49:23.444Z,101954.94
2023-04-26T03:51:49.922Z,101958.31
2023-04-26T03:54:16.478Z,101948.91
2023-04-26T03:56:42.937Z,101948.09
2023-04-26T03:59:09.990Z,101953.19
2023-04-26T04:01:36.673Z,101945.47
2023-04-26T04:04:03.393Z,101952.31
2023-04-26T04:06:29.861Z,101950.66
2023-04-26T04:08:56.286Z,101955.81
2023-04-26T04:11:23.342Z,101954.13
2023-04-26T04:13:49.794Z,101948.19
2023-04-26T04:16:16.284Z,101955.91
2023-04-26T04:18:43.489Z,101958.44
2023-04-26T04:21:09.951Z,101946.47
2023-04-26T04:23:36.470Z,101945.56
2023-04-26T04:26:03.203Z,101949.84
2023-04-26T04:28:29.818Z,101947.25
2023-04-26T04:30:57.043Z,101949.81
2023-04-26T04:33:25.595Z,101945.53
2023-04-26T04:35:52.464Z,101948.06
2023-04-26T04:38:18.911Z,101954.94
2023-04-26T04:40:48.159Z,101948.09
2023-04-26T04:43:15.576Z,101955.84
2023-04-26T04:45:42.347Z,101947.34
2023-04-26T04:48:09.045Z,101948.22
2023-04-26T04:50:38.681Z,101949.94
2023-04-26T04:53:05.141Z,101950.84
2023-04-26T04:55:32.078Z,101953.41
2023-04-26T04:57:58.477Z,101954.25
2023-04-26T05:00:25.127Z,101960.25
2023-04-26T05:02:51.659Z,101955.13
2023-04-26T05:05:18.129Z,101967.13
2023-04-26T05:07:44.496Z,101962.00
2023-04-26T05:10:11.791Z,101972.28
2023-04-26T05:12:38.253Z,101966.28
2023-04-26T05:15:05.223Z,101963.72
2023-04-26T05:17:33.265Z,101978.28
2023-04-26T05:20:00.384Z,101971.47
2023-04-26T05:22:27.188Z,101976.66
2023-04-26T05:24:53.661Z,101981.84
2023-04-26T05:27:20.034Z,101977.56
2023-04-26T05:29:46.456Z,101982.72
2023-04-26T05:32:13.155Z,101982.72
2023-04-26T05:34:39.688Z,101976.72
2023-04-26T05:37:06.152Z,101977.59
2023-04-26T05:39:32.569Z,101981.88
2023-04-26T05:41:59.013Z,101986.16
2023-04-26T05:44:25.414Z,101993.84
2023-04-26T05:46:51.915Z,101982.69
2023-04-26T05:49:18.309Z,101989.47
2023-04-26T05:51:44.720Z,101986.84
2023-04-26T05:54:11.168Z,101981.66
2023-04-26T05:56:37.563Z,101980.69
2023-04-26T05:59:04.022Z,101979.72
2023-04-26T06:01:30.837Z,101977.09
2023-04-26T06:03:59.905Z,101978.75
2023-04-26T06:06:27.649Z,101982.09
2023-04-26T06:08:54.448Z,101988.75
2023-04-26T06:11:21.435Z,101984.25
2023-04-26T06:13:48.042Z,101991.94
2023-04-26T06:16:14.443Z,101984.88
2023-04-26T06:18:41.131Z,101982.97
2023-04-26T06:21:08.052Z,101980.25
2023-04-26T06:23:34.625Z,101981.13
2023-04-26T06:26:01.118Z,101981.13
2023-04-26T06:28:27.920Z,101981.13
2023-04-26T06:30:54.330Z,101984.47
2023-04-26T06:33:20.784Z,101999.88
2023-04-26T06:35:47.153Z,101997.16
2023-04-26T06:38:13.724Z,101990.00
2023-04-26T06:40:40.306Z,102000.13
2023-04-26T06:43:06.809Z,101996.44
2023-04-26T06:45:33.348Z,102003.94
2023-04-26T06:48:04.705Z,102003.88
2023-04-26T06:50:31.393Z,102009.94
2023-04-26T06:52:58.087Z,102011.78
2023-04-26T06:55:24.990Z,102012.63
2023-04-26T06:57:51.577Z,102014.97
2023-04-26T07:00:18.247Z,102010.50
2023-04-26T07:02:45.026Z,102005.19
2023-04-26T07:05:11.638Z,102011.81
2023-04-26T07:07:38.207Z,102010.81
2023-04-26T07:10:05.073Z,102005.09
2023-04-26T07:12:31.783Z,102007.72
2023-04-26T07:14:58.228Z,102006.63
2023-04-26T07:17:24.690Z,102002.38
2023-04-26T07:19:51.154Z,102000.56
2023-04-26T07:22:17.552Z,102001.56
2023-04-26T07:24:43.931Z,101996.28
2023-04-26T07:27:10.917Z,101993.53
2023-04-26T07:29:37.716Z,101994.78
2023-04-26T07:32:04.334Z,101996.59
2023-04-26T07:34:30.930Z,101994.63
2023-04-26T07:36:57.463Z,101995.13
2023-04-26T07:39:24.214Z,101998.66
2023-04-26T07:41:50.770Z,102002.31
2023-04-26T07:44:17.200Z,101999.72
2023-04-26T07:46:43.750Z,102005.53
2023-04-26T07:49:10.113Z,102007.22
2023-04-26T07:51:36.991Z,102007.16
2023-04-26T07:54:03.467Z,102002.78
2023-04-26T07:56:29.930Z,102008.72
2023-04-26T07:58:56.494Z,102009.16
2023-04-26T08:01:24.266Z,102010.22
2023-04-26T08:03:51.061Z,102013.47
2023-04-26T08:06:17.973Z,102023.75
2023-04-26T08:08:49.122Z,102024.41
2023-04-26T08:11:15.609Z,102021.06
2023-04-26T08:13:43.997Z,102021.84
2023-04-26T08:16:10.570Z,102013.13
2023-04-26T08:18:36.919Z,102018.22
2023-04-26T08:21:04.084Z,102015.81
2023-04-26T08:23:35.812Z,102016.81
2023-04-26T08:26:02.806Z,102022.75
2023-04-26T08:28:29.257Z,102019.59
2023-04-26T08:30:55.743Z,102012.59
2023-04-26T08:33:23.304Z,102019.53
2023-04-26T08:35:49.808Z,102018.50
2023-04-26T08:38:16.216Z,102021.81
2023-04-26T08:40:46.705Z,102015.78
2023-04-26T08:43:15.194Z,102013.19
2023-04-26T08:45:47.524Z,102009.81
2023-04-26T08:48:16.118Z,102007.44
2023-04-26T08:50:45.272Z,102009.28
2023-04-26T08:53:15.769Z,102015.31
2023-04-26T08:55:47.065Z,102018.75
2023-04-26T08:58:14.300Z,102015.63
2023-04-26T09:00:44.003Z,102017.28
2023-04-26T09:03:10.846Z,102018.22
2023-04-26T09:05:40.080Z,102017.41
2023-04-26T09:08:07.305Z,102018.38
2023-04-26T09:10:33.745Z,102021.03
2023-04-26T09:13:00.264Z,102013.50
2023-04-26T09:15:28.053Z,102018.59
2023-04-26T09:17:54.673Z,102016.81
2023-04-26T09:20:22.868Z,102015.81
2023-04-26T09:22:51.627Z,102009.75
2023-04-26T09:25:26.166Z,102014.03
2023-04-26T09:27:52.621Z,102015.78
2023-04-26T09:30:20.788Z,102013.91
2023-04-26T09:33:03.902Z,102022.28
2023-04-26T09:35:41.254Z,102020.59
2023-04-26T09:38:13.974Z,102021.22
2023-04-26T09:40:49.124Z,102022.75
2023-04-26T09:43:20.821Z,102022.53
2023-04-26T09:45:58.084Z,102018.75
2023-04-26T09:48:31.396Z,102016.78
2023-04-26T09:50:59.911Z,102016.69
2023-04-26T09:53:27.894Z,102016.25
2023-04-26T09:55:56.079Z,102019.84
2023-04-26T09:58:23.361Z,102015.66
2023-04-26T10:00:51.531Z,102018.97
2023-04-26T10:03:23.161Z,102019.50
2023-04-26T10:05:50.111Z,102014.81
2023-04-26T10:08:16.665Z,102015.16
2023-04-26T10:10:43.993Z,102014.81
2023-04-26T10:13:11.609Z,102002.34
2023-04-26T10:15:39.546Z,102005.84
2023-04-26T10:18:06.107Z,101996.59
2023-04-26T10:20:32.598Z,102000.84
2023-04-26T10:23:01.629Z,102001.69
2023-04-26T10:25:38.847Z,102008.66
2023-04-26T10:28:06.035Z,102003.50
2023-04-26T10:30:32.850Z,102010.75
2023-04-26T10:32:59.265Z,102010.59
2023-04-26T10:35:27.454Z,102003.88
2023-04-26T10:37:59.724Z,102009.00
2023-04-26T10:40:28.512Z,102003.09
2023-04-26T10:43:14.882Z,102002.25
2023-04-26T10:45:43.203Z,102004.31
2023-04-26T10:48:28.405Z,102005.59
2023-04-26T10:51:13.084Z,102003.81
2023-04-26T10:53:45.715Z,102008.13
2023-04-26T10:56:24.134Z,102005.53
2023-04-26T10:59:22.494Z,101999.38
2023-04-26T11:01:54.986Z,101998.00
2023-04-26T11:04:22.425Z,101999.50
2023-04-26T11:06:54.217Z,102003.78
2023-04-26T11:09:50.165Z,102009.31
2023-04-26T11:12:17.125Z,102002.50
2023-04-26T11:14:45.519Z,101993.94
2023-04-26T11:17:13.102Z,101990.72
2023-04-26T11:19:41.611Z,101993.94
2023-04-26T11:22:08.590Z,101987.22
2023-04-26T11:24:36.776Z,101988.84
2023-04-26T11:27:09.710Z,101988.94
2023-04-26T11:29:36.319Z,101983.75
2023-04-26T11:32:03.526Z,101983.03
2023-04-26T11:34:38.167Z,101988.94
2023-04-26T11:37:06.369Z,101988.13
2023-04-26T11:39:36.933Z,101975.94
2023-04-26T11:42:09.958Z,101980.94
2023-04-26T11:44:37.435Z,101979.09
2023-04-26T11:47:07.799Z,101982.66
2023-04-26T11:49:37.280Z,101975.59
2023-04-26T11:52:05.102Z,101980.19
2023-04-26T11:54:37.577Z,101976.88
2023-04-26T11:57:17.263Z,101982.16
2023-04-26T11:59:44.677Z,101973.16
2023-04-26T12:02:12.087Z,101970.75
2023-04-26T12:04:42.080Z,101968.94
2023-04-26T12:07:09.346Z,101971.16
2023-04-26T12:09:41.597Z,101980.94
2023-04-26T12:12:08.166Z,101976.53
2023-04-26T12:14:38.768Z,101983.34
2023-04-26T12:17:06.806Z,101981.59
2023-04-26T12:19:34.366Z,101977.94
2023-04-26T12:22:01.017Z,101976.13
2023-04-26T12:24:38.641Z,101983.53
2023-04-26T12:27:06.841Z,101984.94
2023-04-26T12:29:34.134Z,101988.03
2023-04-26T12:32:01.931Z,101993.38
2023-04-26T12:34:28.535Z,101984.72
2023-04-26T12:36:55.332Z,101990.09
2023-04-26T12:39:21.771Z,101989.38
2023-04-26T12:41:49.083Z,101988.72
2023-04-26T12:44:15.669Z,101997.44
2023-04-26T12:46:42.225Z,101996.72
2023-04-26T12:49:08.879Z,101994.94
2023-04-26T12:51:35.302Z,101994.84
2023-04-26T12:54:01.969Z,101987.75
2023-04-26T12:56:29.996Z,101985.19
2023-04-26T12:58:56.665Z,101983.44
2023-04-26T13:01:23.117Z,101984.78
2023-04-26T13:03:49.823Z,101985.09
2023-04-26T13:06:16.662Z,101987.25
2023-04-26T13:08:43.165Z,101985.00
2023-04-26T13:11:09.589Z,101987.44
2023-04-26T13:13:43.095Z,101989.03
2023-04-26T13:16:12.595Z,101985.50
2023-04-26T13:18:39.630Z,101992.50
2023-04-26T13:21:06.137Z,101990.50
2023-04-26T13:23:32.591Z,101988.56
2023-04-26T13:25:59.089Z,101986.59
2023-04-26T13:28:25.574Z,101987.31
2023-04-26T13:30:52.418Z,101984.97
2023-04-26T13:33:21.119Z,101989.69
2023-04-26T13:35:47.890Z,101993.44
2023-04-26T13:38:14.506Z,101994.06
2023-04-26T13:40:41.299Z,101998.75
2023-04-26T13:43:07.740Z,101993.63
2023-04-26T13:45:34.292Z,102000.53
2023-04-26T13:48:00.810Z,101998.69
2023-04-26T13:50:27.409Z,102006.47
2023-04-26T13:52:54.108Z,102004.00
2023-04-26T13:55:21.245Z,102007.41
2023-04-26T13:57:47.723Z,102006.41
2023-04-26T14:00:14.798Z,101996.84
2023-04-26T14:02:41.439Z,102003.59
2023-04-26T14:05:09.127Z,102001.31
2023-04-26T14:07:35.769Z,101999.47
2023-04-26T14:10:02.185Z,101999.06
2023-04-26T14:12:29.218Z,102001.50
2023-04-26T14:14:55.599Z,101996.03
2023-04-26T14:17:22.076Z,101986.25
2023-04-26T14:19:48.518Z,101983.63
2023-04-26T14:22:17.408Z,101984.41
2023-04-26T14:24:43.831Z,101988.19
2023-04-26T14:27:10.201Z,101989.09
2023-04-26T14:29:36.643Z,101987.22
2023-04-26T14:32:03.206Z,101980.97
2023-04-26T14:34:29.815Z,101984.34
2023-04-26T14:37:01.311Z,101985.03
2023-04-26T14:39:28.129Z,101984.13
2023-04-26T14:41:56.737Z,101977.41
2023-04-26T14:44:26.913Z,101982.66
2023-04-26T14:46:53.300Z,101980.13
2023-04-26T14:49:19.850Z,101985.41
2023-04-26T14:51:46.295Z,101983.00
2023-04-26T14:54:12.862Z,101980.75
2023-04-26T14:56:39.307Z,101978.47
2023-04-26T14:59:05.680Z,101977.16
2023-04-26T15:01:32.212Z,101978.69
2023-04-26T15:04:00.577Z,101983.81
2023-04-26T15:06:28.636Z,101975.16
2023-04-26T15:08:55.053Z,101981.06
2023-04-26T15:11:21.598Z,101974.28
2023-04-26T15:13:47.978Z,101967.78
2023-04-26T15:16:14.457Z,101973.09
2023-04-26T15:18:40.873Z,101974.78
2023-04-26T15:21:07.328Z,101981.97
2023-04-26T15:23:33.721Z,101981.47
2023-04-26T15:26:03.866Z,101981.75
2023-04-26T15:28:30.468Z,101980.03
2023-04-26T15:31:09.207Z,101970.19
2023-04-26T15:33:36.361Z,101974.31
2023-04-26T15:36:02.961Z,101974.94
2023-04-26T15:38:29.400Z,101976.59
2023-04-26T15:40:55.996Z,101971.22
2023-04-26T15:43:22.411Z,101972.88
2023-04-26T15:45:49.630Z,101972.09
2023-04-26T15:48:16.360Z,101968.63
2023-04-26T15:50:43.002Z,101974.84
2023-04-26T15:53:09.624Z,101975.78
2023-04-26T15:55:36.216Z,101979.53
2023-04-26T15:58:02.970Z,101971.03
2023-04-26T16:00:30.974Z,101972.59
2023-04-26T16:02:57.552Z,101974.13
2023-04-26T16:05:24.066Z,101972.31
2023-04-26T16:07:50.877Z,101974.81
2023-04-26T16:10:17.370Z,101976.59
2023-04-26T16:12:44.773Z,101982.59
2023-04-26T16:15:11.886Z,101974.63
2023-04-26T16:17:39.028Z,101979.56
2023-04-26T16:20:07.167Z,101980.50
2023-04-26T16:22:34.460Z,101984.06
2023-04-26T16:25:01.485Z,101981.50
2023-04-26T16:27:27.948Z,101976.59
2023-04-26T16:29:54.480Z,101980.25
2023-04-26T16:32:21.641Z,101982.09
2023-04-26T16:34:48.460Z,101977.88
2023-04-26T16:37:15.048Z,101989.38
2023-04-26T16:39:41.511Z,101986.09
2023-04-26T16:42:07.913Z,101978.47
2023-04-26T16:44:34.336Z,101982.00
2023-04-26T16:47:01.553Z,101980.34
2023-04-26T16:49:28.383Z,101982.00
2023-04-26T16:51:58.796Z,101981.22
2023-04-26T16:54:26.218Z,101979.53
2023-04-26T16:56:52.966Z,101975.25
2023-04-26T16:59:19.646Z,101977.00
2023-04-26T17:01:47.177Z,101977.91
2023-04-26T17:04:14.028Z,101984.06
2023-04-26T17:06:40.706Z,101983.25
2023-04-26T17:09:08.218Z,101983.34
2023-04-26T17:11:37.137Z,101977.25
2023-04-26T17:14:04.225Z,101984.91
2023-04-26T17:16:30.849Z,101984.00
2023-04-26T17:18:58.200Z,101988.28
2023-04-26T17:21:24.550Z,101993.47
2023-04-26T17:23:51.259Z,101995.19
2023-04-26T17:26:17.665Z,101997.00
2023-04-26T17:28:44.148Z,101992.78
2023-04-26T17:31:10.597Z,101987.06
2023-04-26T17:33:37.052Z,101994.97
2023-04-26T17:36:03.745Z,101988.09
2023-04-26T17:38:30.211Z,101999.78
2023-04-26T17:40:56.602Z,102004.97
2023-04-26T17:43:23.129Z,101998.91
2023-04-26T17:45:49.557Z,101993.78
2023-04-26T17:48:16.956Z,102005.25
2023-04-26T17:50:43.358Z,102005.38
2023-04-26T17:53:09.749Z,102008.91
2023-04-26T17:55:36.497Z,102008.81
2023-04-26T17:58:03.211Z,102008.09
2023-04-26T18:00:29.605Z,102013.34
2023-04-26T18:02:57.925Z,102014.19
2023-04-26T18:05:24.897Z,102019.38
2023-04-26T18:07:51.807Z,102019.50
2023-04-26T18:10:18.302Z,102018.78
2023-04-26T18:12:44.744Z,102022.38
2023-04-26T18:15:12.283Z,102018.03
2023-04-26T18:17:38.771Z,102026.06
2023-04-26T18:20:06.569Z,102030.59
2023-04-26T18:22:33.102Z,102026.34
2023-04-26T18:24:59.528Z,102024.66
2023-04-26T18:27:26.029Z,102027.31
2023-04-26T18:29:52.445Z,102040.41
2023-04-26T18:32:18.882Z,102032.66
2023-04-26T18:34:45.364Z,102036.25
2023-04-26T18:37:11.818Z,102039.72
2023-04-26T18:39:38.306Z,102037.94
2023-04-26T18:42:04.935Z,102040.53
2023-04-26T18:44:32.111Z,102045.72
2023-04-26T18:46:58.576Z,102041.47
2023-04-26T18:49:27.210Z,102045.81
2023-04-26T18:51:54.096Z,102050.13
2023-04-26T18:54:20.525Z,102046.69
2023-04-26T18:56:46.920Z,102047.75
2023-04-26T18:59:13.425Z,102039.97
2023-04-26T19:01:40.088Z,102045.16
2023-04-26T19:04:08.314Z,102046.91
2023-04-26T19:06:35.019Z,102041.84
2023-04-26T19:09:01.446Z,102047.19
2023-04-26T19:11:27.884Z,102044.69
2023-04-26T19:13:54.382Z,102048.13
2023-04-26T19:16:20.927Z,102054.22
2023-04-26T19:18:49.009Z,102051.66
2023-04-26T19:21:16.130Z,102045.66
2023-04-26T19:23:43.194Z,102054.31
2023-04-26T19:26:14.666Z,102057.84
2023-04-26T19:28:41.559Z,102066.56
2023-04-26T19:31:08.051Z,102061.41
2023-04-26T19:33:34.578Z,102062.38
2023-04-26T19:36:01.104Z,102065.94
2023-04-26T19:38:27.516Z,102068.63
2023-04-26T19:40:53.985Z,102071.34
2023-04-26T19:43:20.629Z,102071.47
2023-04-26T19:45:47.249Z,102077.56
2023-04-26T19:48:13.713Z,102074.13
2023-04-26T19:50:40.419Z,102069.84
2023-04-26T19:53:08.007Z,102069.94
2023-04-26T19:55:34.497Z,102077.81
2023-04-26T19:58:01.258Z,102070.19
2023-04-26T20:00:30.192Z,102078.97
2023-04-26T20:02:58.863Z,102080.03
2023-04-26T20:05:26.449Z,102076.69
2023-04-26T20:07:53.818Z,102074.28
2023-04-26T20:10:22.259Z,102079.69
2023-04-26T20:12:49.329Z,102086.78
2023-04-26T20:15:16.088Z,102085.31
2023-04-26T20:17:43.479Z,102082.91
2023-04-26T20:20:12.085Z,102095.16
2023-04-26T20:22:41.848Z,102092.66
2023-04-26T20:25:08.672Z,102093.50
2023-04-26T20:27:35.261Z,102098.72
2023-04-26T20:30:02.003Z,102098.03
2023-04-26T20:32:28.594Z,102093.94
2023-04-26T20:34:55.146Z,102093.34
2023-04-26T20:37:22.030Z,102096.09
2023-04-26T20:39:48.928Z,102097.03
2023-04-26T20:42:15.618Z,102104.81
2023-04-26T20:44:42.413Z,102097.13
2023-04-26T20:47:08.977Z,102106.72
2023-04-26T20:49:35.644Z,102102.47
2023-04-26T20:52:02.135Z,102102.47
2023-04-26T20:54:28.559Z,102103.31
2023-04-26T20:56:55.065Z,102111.00
2023-04-26T20:59:21.474Z,102103.25
2023-04-26T21:01:48.044Z,102107.56
2023-04-26T21:04:14.632Z,102103.31
2023-04-26T21:06:41.145Z,102099.03
2023-04-26T21:09:08.205Z,102093.06
2023-04-26T21:11:34.886Z,102095.75
2023-04-26T21:14:01.641Z,102095.81
2023-04-26T21:16:28.029Z,102097.56
2023-04-26T21:18:54.545Z,102102.75
2023-04-26T21:21:21.058Z,102096.84
2023-04-26T21:23:47.480Z,102102.06
2023-04-26T21:26:13.931Z,102101.25
2023-04-26T21:28:40.318Z,102102.16
2023-04-26T21:31:07.760Z,102107.41
2023-04-26T21:33:34.579Z,102106.63
2023-04-26T21:36:01.025Z,102098.09
2023-04-26T21:38:27.478Z,102100.69
2023-04-26T21:40:53.930Z,102099.88
2023-04-26T21:43:21.635Z,102099.84
2023-04-26T21:45:50.000Z,102103.28
2023-04-26T21:48:16.553Z,102110.13
2023-04-26T21:50:42.904Z,102113.56
2023-04-26T21:53:09.467Z,102106.72
2023-04-26T21:55:35.889Z,102101.59
2023-04-26T21:58:02.537Z,102107.63
2023-04-26T22:00:28.916Z,102099.88
2023-04-26T22:02:55.934Z,102105.91
2023-04-26T22:05:22.631Z,102109.34
2023-04-26T22:07:49.055Z,102107.59
2023-04-26T22:10:16.414Z,102105.06
2023-04-26T22:12:43.098Z,102105.09
2023-04-26T22:15:09.980Z,102110.31
2023-04-26T22:17:36.480Z,102118.09
2023-04-26T22:20:03.693Z,102118.97
2023-04-26T22:22:30.076Z,102120.69
2023-04-26T22:24:56.744Z,102113.81
2023-04-26T22:27:23.210Z,102122.38
2023-04-26T22:29:49.650Z,102118.09
2023-04-26T22:32:16.155Z,102111.22
2023-04-26T22:34:43.967Z,102109.53
2023-04-26T22:37:20.352Z,102117.28
2023-04-26T22:39:47.949Z,102116.44
2023-04-26T22:42:14.478Z,102123.31
2023-04-26T22:44:41.953Z,102124.16
2023-04-26T22:47:08.400Z,102123.31
2023-04-26T22:49:34.757Z,102125.88
2023-04-26T22:52:07.767Z,102120.72
2023-04-26T22:54:38.408Z,102123.28
2023-04-26T22:57:05.533Z,102132.75
2023-04-26T22:59:34.129Z,102135.31
2023-04-26T23:02:01.624Z,102125.00
2023-04-26T23:04:28.055Z,102132.75
2023-04-26T23:06:54.439Z,102131.88
2023-04-26T23:09:20.961Z,102132.75
2023-04-26T23:11:47.754Z,102129.34
2023-04-26T23:14:15.699Z,102137.88
2023-04-26T23:16:42.413Z,102137.03
2023-04-26T23:19:09.571Z,102140.47
2023-04-26T23:21:36.154Z,102137.06
2023-04-26T23:24:02.658Z,102137.88
2023-04-26T23:26:29.019Z,102140.44
2023-04-26T23:28:55.438Z,102150.72
2023-04-26T23:31:21.860Z,102150.72
2023-04-26T23:33:48.490Z,102149.00
2023-04-26T23:36:14.886Z,102149.88
2023-04-26T23:38:41.328Z,102156.72
2023-04-26T23:41:07.757Z,102146.44
2023-04-26T23:43:34.164Z,102142.09
2023-04-26T23:46:00.614Z,102150.69
2023-04-26T23:48:27.365Z,102145.53
2023-04-26T23:50:53.929Z,102152.38
2023-04-26T23:53:20.474Z,102157.47
2023-04-26T23:55:47.341Z,102160.03
2023-04-26T23:58:13.785Z,102164.34
